WATT/KOE METAR and TAF weather

Enter ICAO airport designator
Station Type Date Time Source
WATT METAR 2019/10/15 17:00 UTC NOAA

WATT 151700Z AUTO 13005KT 9999 NCD 25/21 Q1012


Station Type Date Time Source
WATT Decoded METAR 2019/10/15 17:00 UTC NOAA

Station name not available
Oct 15, 2019 - 01:00 PM EDT / 2019.10.15 1700 UTC
Wind: from the SE (130 degrees) at 6 MPH (5 KT):0
Visibility: greater than 7 mile(s):0
Temperature: 77 F (25 C)
Dew Point: 69 F (21 C)
Relative Humidity: 78%
Pressure (altimeter): 29.88 in. Hg (1012 hPa)
ob: WATT 151700Z AUTO 13005KT 9999 NCD 25/21 Q1012
cycle: 17

Station Type Date Time Source
WATT TAF 2019/10/15 18:00 UTC NOAA

TAF WATT 151700Z 1518/1618 11006KT 8000 FEW020
BECMG 1600/1602 32013KT
BECMG 1610/1612 12006KT

Example: see airport list